Time;durP1;ratioP1;P1;durP2;ratioP2;P2;SDS_P1;SDS_P2;PMS_P1;PMS_P2;Temp;Humidity;BMP_temperature;BMP_pressure;BME280_temperature;BME280_humidity;BME280_pressure;Samples;Min_cycle;Max_cycle;Signal;HPM_P1;HPM_P2
2023/08/17 00:02:07;;;;;;;9.80;7.60;;;;;;;26.05;52.33;100716.03;108000;1253;60029;-67
2023/08/17 00:04:34;;;;;;;11.70;7.70;;;;;;;25.98;52.48;100720.27;107919;1253;73867;-66
2023/08/17 00:07:02;;;;;;;10.10;7.70;;;;;;;25.83;52.96;100720.58;108068;1258;69064;-67
2023/08/17 00:09:29;;;;;;;12.90;8.90;;;;;;;25.86;52.94;100720.73;108102;1253;72531;-67
2023/08/17 00:11:57;;;;;;;12.90;8.00;;;;;;;25.85;53.02;100717.39;108059;1253;61596;-68
2023/08/17 00:14:25;;;;;;;11.30;7.60;;;;;;;25.68;53.46;100723.35;108007;1253;59947;-67
2023/08/17 00:16:52;;;;;;;13.50;9.10;;;;;;;25.73;53.46;100724.00;107986;1253;73922;-67
2023/08/17 00:19:19;;;;;;;10.50;7.40;;;;;;;25.76;53.53;100725.91;108050;1253;70051;-67
2023/08/17 00:21:47;;;;;;;12.80;8.40;;;;;;;25.74;53.52;100724.31;108036;1253;71167;-68
2023/08/17 00:24:15;;;;;;;14.50;8.40;;;;;;;25.63;53.88;100724.90;108054;1254;61674;-67
2023/08/17 00:26:42;;;;;;;13.10;8.60;;;;;;;25.75;53.62;100721.72;108151;1252;60264;-66
2023/08/17 00:29:11;;;;;;;15.80;9.10;;;;;;;25.73;53.72;100725.98;108060;1253;73812;-67
2023/08/17 00:31:38;;;;;;;13.70;8.60;;;;;;;25.72;53.77;100726.69;108087;1253;70124;-67
2023/08/17 00:34:07;;;;;;;11.50;7.70;;;;;;;25.83;53.52;100725.94;108079;1253;73124;-67
2023/08/17 00:36:34;;;;;;;12.70;8.40;;;;;;;25.84;53.44;100730.39;108022;1253;60833;-67
2023/08/17 00:39:02;;;;;;;10.10;7.70;;;;;;;25.72;53.79;100728.98;108027;1253;60393;-67
2023/08/17 00:41:30;;;;;;;15.50;8.60;;;;;;;25.66;53.85;100729.47;108079;1252;74038;-67
2023/08/17 00:43:57;;;;;;;14.80;8.50;;;;;;;25.75;53.67;100732.86;108098;1253;68689;-67
2023/08/17 00:46:25;;;;;;;8.70;7.30;;;;;;;25.71;53.63;100733.34;108069;1252;72698;-69
2023/08/17 00:48:54;;;;;;;10.80;8.20;;;;;;;25.94;53.08;100733.50;108113;1253;60447;-66
2023/08/17 00:51:23;;;;;;;9.00;8.10;;;;;;;25.80;53.49;100731.11;107815;1258;60850;-68
2023/08/17 00:53:51;;;;;;;12.50;9.10;;;;;;;25.69;53.87;100732.80;108080;1252;72951;-66
2023/08/17 00:56:19;;;;;;;12.60;8.80;;;;;;;25.54;54.32;100733.15;108053;1253;69360;-67
2023/08/17 00:58:46;;;;;;;11.90;8.60;;;;;;;25.38;54.84;100737.24;108083;1252;72728;-68
2023/08/17 01:01:14;;;;;;;13.00;8.50;;;;;;;25.27;55.13;100734.85;108063;1252;61118;-67
2023/08/17 01:03:41;;;;;;;14.00;8.80;;;;;;;25.04;55.70;100730.38;108074;1253;60638;-67
2023/08/17 01:06:09;;;;;;;10.80;8.90;;;;;;;25.01;56.15;100735.37;107891;1253;73636;-67
2023/08/17 01:08:37;;;;;;;12.20;8.60;;;;;;;24.97;56.07;100731.89;108165;1252;68592;-67
2023/08/17 01:11:37;;;;;;;13.20;8.40;;;;;;;24.88;56.39;100731.56;107930;1253;71964;-68
2023/08/17 01:14:08;;;;;;;11.50;8.10;;;;;;;25.16;55.84;100729.87;107953;1253;61681;-68
2023/08/17 01:16:42;;;;;;;14.50;8.80;;;;;;;25.19;55.64;100730.86;107869;1253;60016;-66
2023/08/17 01:19:10;;;;;;;13.00;9.10;;;;;;;25.16;55.85;100730.44;108044;1253;73894;-68
2023/08/17 01:21:44;;;;;;;12.80;8.40;;;;;;;25.14;55.76;100733.23;108125;1253;68855;-67
2023/08/17 01:24:12;;;;;;;13.00;9.10;;;;;;;25.10;55.85;100734.02;108066;1253;72166;-69
2023/08/17 01:26:39;;;;;;;12.60;9.10;;;;;;;25.12;55.71;100734.14;108053;1252;61647;-67
2023/08/17 01:29:07;;;;;;;13.30;8.90;;;;;;;25.20;55.57;100735.06;108216;1256;60241;-67
2023/08/17 01:31:51;;;;;;;14.50;8.90;;;;;;;25.25;55.35;100738.38;108062;1253;72852;-66
2023/08/17 01:34:19;;;;;;;14.00;9.80;;;;;;;25.25;55.41;100738.08;108091;1256;72507;-65
2023/08/17 01:36:52;;;;;;;10.70;9.30;;;;;;;25.28;55.36;100740.66;108004;1252;72598;-67
2023/08/17 01:39:22;;;;;;;14.30;9.20;;;;;;;25.23;55.36;100741.30;107697;1253;189224;-67
2023/08/17 01:43:35;;;;;;;14.40;9.40;;;;;;;22.91;62.49;100744.48;104839;1289;599636;-67
2023/08/17 01:46:03;;;;;;;15.80;9.60;;;;;;;23.76;60.08;100744.45;107246;1270;60522;-68
2023/08/17 01:48:30;;;;;;;13.90;9.60;;;;;;;23.93;59.40;100746.73;108024;1253;59995;-66
2023/08/17 01:50:58;;;;;;;13.70;9.30;;;;;;;23.98;59.59;100745.73;107878;1253;72112;-68
2023/08/17 01:53:25;;;;;;;17.80;10.70;;;;;;;24.02;59.53;100744.14;108062;1254;70127;-67
2023/08/17 01:55:52;;;;;;;13.50;9.70;;;;;;;24.15;59.09;100745.61;108071;1253;71970;-68
2023/08/17 01:58:20;;;;;;;11.60;9.50;;;;;;;24.07;59.25;100744.77;108156;1250;209843;-67
2023/08/17 02:00:48;;;;;;;16.20;9.70;;;;;;;24.04;59.44;100747.88;108457;1250;59116;-66
2023/08/17 02:03:16;;;;;;;17.40;9.70;;;;;;;24.08;59.33;100744.84;108334;1251;72252;-66
2023/08/17 02:05:47;;;;;;;15.10;9.70;;;;;;;24.11;59.48;100746.60;108214;1250;70504;-67
2023/08/17 02:08:15;;;;;;;15.30;9.70;;;;;;;24.07;59.40;100748.60;108345;1251;72952;-67
2023/08/17 02:10:42;;;;;;;12.70;9.40;;;;;;;23.85;60.00;100749.12;108361;1251;61687;-67
2023/08/17 02:13:10;;;;;;;13.30;9.40;;;;;;;23.87;59.93;100750.37;108346;1250;59915;-67
2023/08/17 02:15:46;;;;;;;12.60;9.00;;;;;;;24.09;59.58;100749.83;108186;1250;73037;-67
2023/08/17 02:18:14;;;;;;;12.80;9.20;;;;;;;24.13;59.31;100751.09;108180;1250;70620;-64
2023/08/17 02:20:41;;;;;;;11.70;9.60;;;;;;;23.97;59.61;100751.13;108287;1250;72670;-67
2023/08/17 02:23:10;;;;;;;15.40;9.50;;;;;;;23.88;60.01;100756.27;108347;1250;62208;-68
2023/08/17 02:25:38;;;;;;;12.70;9.80;;;;;;;23.92;59.96;100754.99;108216;1250;60045;-68
2023/08/17 02:28:06;;;;;;;13.10;9.80;;;;;;;23.82;60.17;100754.02;108242;1250;71754;-67
2023/08/17 02:30:33;;;;;;;14.80;9.60;;;;;;;23.71;60.64;100754.94;108226;1256;68752;-65
2023/08/17 02:33:01;;;;;;;15.30;10.10;;;;;;;23.82;60.42;100756.02;108274;1254;71651;-67
2023/08/17 02:35:28;;;;;;;11.90;9.50;;;;;;;23.81;60.29;100756.45;108280;1253;62496;-67
2023/08/17 02:37:55;;;;;;;14.40;9.70;;;;;;;23.67;60.71;100755.04;108144;1251;59330;-67
2023/08/17 02:40:23;;;;;;;11.90;9.60;;;;;;;23.83;60.45;100758.09;108405;1251;73364;-67
2023/08/17 02:42:50;;;;;;;12.30;9.20;;;;;;;24.07;59.65;100761.61;108172;1251;69045;-68
2023/08/17 02:45:18;;;;;;;18.60;9.00;;;;;;;23.99;59.90;100761.77;108061;1258;72644;-68
2023/08/17 02:47:45;;;;;;;13.20;9.40;;;;;;;24.08;59.63;100759.60;108368;1251;60602;-68
2023/08/17 02:50:14;;;;;;;14.10;8.90;;;;;;;24.08;59.62;100762.29;108256;1251;60489;-68
2023/08/17 02:52:42;;;;;;;15.20;9.90;;;;;;;24.05;59.85;100765.41;108141;1251;71527;-66
2023/08/17 02:55:09;;;;;;;14.00;9.60;;;;;;;23.93;60.01;100765.88;108085;1251;68916;-67
2023/08/17 02:57:37;;;;;;;10.60;8.90;;;;;;;23.91;59.85;100762.68;108125;1251;71594;-67
2023/08/17 03:00:05;;;;;;;16.00;9.90;;;;;;;23.85;60.18;100766.37;108116;1253;60276;-67
2023/08/17 03:02:33;;;;;;;12.10;9.50;;;;;;;23.94;59.98;100769.16;108120;1251;59439;-68
2023/08/17 03:05:03;;;;;;;16.90;10.10;;;;;;;23.98;59.86;100771.23;108136;1251;73036;-67
2023/08/17 03:07:30;;;;;;;14.00;9.60;;;;;;;24.00;59.85;100765.48;108032;1251;69933;-67
2023/08/17 03:09:57;;;;;;;15.60;8.90;;;;;;;24.08;59.51;100764.45;108147;1253;70370;-67
2023/08/17 03:12:25;;;;;;;12.30;9.60;;;;;;;24.34;58.84;100764.92;108095;1251;62145;-67
2023/08/17 03:14:53;;;;;;;11.90;8.80;;;;;;;24.32;58.83;100766.59;108134;1251;60909;-67
2023/08/17 03:17:20;;;;;;;14.70;9.20;;;;;;;24.20;59.16;100766.90;108049;1251;73044;-67
2023/08/17 03:19:48;;;;;;;12.00;8.90;;;;;;;24.27;59.14;100766.25;108112;1251;70261;-68
2023/08/17 03:22:16;;;;;;;11.40;8.90;;;;;;;24.28;59.49;100770.63;108115;1253;71415;-67
2023/08/17 03:24:43;;;;;;;11.50;8.70;;;;;;;24.44;59.87;100766.61;108145;1251;60542;-68
2023/08/17 03:27:10;;;;;;;10.20;8.40;;;;;;;24.80;59.11;100767.00;108071;1257;60069;-68
2023/08/17 03:29:38;;;;;;;10.30;7.80;;;;;;;25.16;58.20;100762.92;108062;1257;73043;-68
2023/08/17 03:32:07;;;;;;;13.00;7.90;;;;;;;25.42;57.57;100763.67;108090;1251;69283;-68
2023/08/17 03:34:35;;;;;;;13.80;7.60;;;;;;;25.94;56.06;100759.02;108094;1251;71797;-67
2023/08/17 03:37:04;;;;;;;15.90;7.20;;;;;;;26.36;54.97;100755.27;108066;1253;61105;-67
2023/08/17 03:39:32;;;;;;;10.30;7.00;;;;;;;26.84;53.63;100758.00;108038;1251;60011;-67
2023/08/17 03:41:59;;;;;;;16.10;7.00;;;;;;;27.17;52.53;100755.35;108203;1251;71639;-67
2023/08/17 03:44:26;;;;;;;8.80;6.80;;;;;;;27.67;51.38;100757.75;108092;1251;70441;-67
2023/08/17 03:46:54;;;;;;;16.70;7.10;;;;;;;28.18;49.98;100755.70;108029;1251;72709;-67
2023/08/17 03:49:21;;;;;;;8.80;6.20;;;;;;;28.54;49.04;100755.84;108050;1251;61657;-67
2023/08/17 03:51:49;;;;;;;12.40;6.20;;;;;;;28.74;48.38;100753.92;108016;1251;59519;-67
2023/08/17 03:54:17;;;;;;;9.20;6.50;;;;;;;29.09;47.67;100754.64;108152;1256;71359;-68
2023/08/17 03:56:44;;;;;;;14.10;6.00;;;;;;;29.24;47.11;100758.85;108030;1251;70258;-68
2023/08/17 03:59:11;;;;;;;12.10;6.00;;;;;;;29.65;46.21;100755.58;108134;1251;72490;-68
2023/08/17 04:01:39;;;;;;;9.00;6.00;;;;;;;29.91;45.42;100757.10;108196;1251;60753;-68
2023/08/17 04:04:07;;;;;;;9.00;5.30;;;;;;;30.26;44.68;100752.27;108186;1251;60062;-67
2023/08/17 04:06:35;;;;;;;9.50;4.90;;;;;;;30.73;43.59;100749.33;107836;1251;73062;-68
2023/08/17 04:09:03;;;;;;;8.30;5.20;;;;;;;31.02;42.89;100747.34;108253;1251;70473;-68
2023/08/17 04:11:31;;;;;;;11.90;4.80;;;;;;;31.26;42.32;100746.91;108061;1251;71789;-68
2023/08/17 04:13:58;;;;;;;7.90;5.10;;;;;;;31.68;41.44;100747.11;108171;1251;61640;-67
2023/08/17 04:16:27;;;;;;;7.00;5.30;;;;;;;31.93;40.56;100749.48;108088;1251;60004;-66
2023/08/17 04:18:54;;;;;;;12.20;5.50;;;;;;;32.21;39.91;100749.86;108108;1251;73286;-68
2023/08/17 04:21:22;;;;;;;11.90;4.80;;;;;;;32.47;38.96;100750.45;108095;1251;69688;-69
2023/08/17 04:23:49;;;;;;;20.90;4.70;;;;;;;32.78;38.64;100749.72;108046;1254;74024;-67
2023/08/17 04:26:16;;;;;;;9.60;4.10;;;;;;;33.23;37.63;100751.42;107987;1256;60042;-68
2023/08/17 04:28:44;;;;;;;6.90;4.00;;;;;;;33.33;37.09;100754.27;108129;1253;59552;-67
2023/08/17 04:31:11;;;;;;;7.70;4.10;;;;;;;33.51;36.50;100751.23;108061;1252;64525;-68
2023/08/17 04:33:40;;;;;;;4.90;3.80;;;;;;;33.45;36.11;100753.30;108133;1257;61321;-68
2023/08/17 04:36:07;;;;;;;6.50;3.60;;;;;;;33.44;35.82;100756.47;108096;1253;63723;-68
2023/08/17 04:38:35;;;;;;;5.90;3.90;;;;;;;33.85;34.74;100759.73;108072;1252;59484;-68
2023/08/17 04:41:02;;;;;;;9.10;4.40;;;;;;;33.88;34.68;100761.39;108162;1253;59631;-68
2023/08/17 04:43:30;;;;;;;6.90;3.90;;;;;;;34.14;34.59;100761.21;108101;1253;63286;-69
2023/08/17 04:45:58;;;;;;;4.50;3.50;;;;;;;34.35;34.02;100761.36;108110;1253;61542;-69
2023/08/17 04:48:25;;;;;;;6.10;3.80;;;;;;;34.33;33.62;100767.23;108082;1253;72078;-69
2023/08/17 04:50:53;;;;;;;6.70;3.80;;;;;;;34.40;33.43;100766.25;107935;1256;59559;-69
2023/08/17 04:53:20;;;;;;;9.10;3.60;;;;;;;34.54;33.26;100768.13;108057;1253;60301;-68
2023/08/17 04:55:49;;;;;;;9.60;3.70;;;;;;;34.77;32.98;100763.83;108045;1253;64084;-69
2023/08/17 04:58:17;;;;;;;5.40;3.70;;;;;;;35.14;32.30;100763.25;108159;1253;60352;-69
2023/08/17 05:00:44;;;;;;;13.20;4.10;;;;;;;35.38;32.06;100763.02;108109;1253;63687;-70
2023/08/17 05:03:12;;;;;;;5.90;3.60;;;;;;;35.40;31.72;100762.77;108070;1254;62293;-69
2023/08/17 05:05:53;;;;;;;6.80;3.60;;;;;;;35.66;31.24;100766.95;108072;1258;59404;-69
2023/08/17 05:08:22;;;;;;;7.50;3.70;;;;;;;35.89;30.86;100765.55;107961;1253;63483;-69
2023/08/17 05:10:49;;;;;;;6.60;3.70;;;;;;;36.14;30.61;100767.17;108085;1253;61365;-68
2023/08/17 05:13:17;;;;;;;12.70;4.20;;;;;;;36.34;30.22;100766.19;108066;1254;66012;-68
2023/08/17 05:15:45;;;;;;;7.70;4.00;;;;;;;36.37;30.06;100768.80;108089;1253;59522;-69
2023/08/17 05:18:14;;;;;;;6.80;3.70;;;;;;;36.64;29.67;100773.32;108068;1253;59701;-68
2023/08/17 05:20:42;;;;;;;9.50;3.50;;;;;;;36.64;29.79;100770.63;108071;1253;64184;-68
2023/08/17 05:23:10;;;;;;;12.10;3.90;;;;;;;36.83;29.64;100771.15;108082;1253;61371;-69
2023/08/17 05:25:37;;;;;;;8.20;3.90;;;;;;;37.14;29.20;100771.92;108004;1251;63730;-68
2023/08/17 05:28:05;;;;;;;10.50;3.80;;;;;;;37.08;28.86;100774.31;108218;1253;59537;-69
2023/08/17 05:30:33;;;;;;;10.10;3.50;;;;;;;37.01;28.97;100772.52;108083;1251;59530;-69
2023/08/17 05:33:00;;;;;;;9.40;3.70;;;;;;;36.97;28.59;100768.08;108076;1251;63149;-69
2023/08/17 05:35:27;;;;;;;11.10;3.40;;;;;;;37.24;28.81;100767.25;108120;1251;61422;-69
2023/08/17 05:37:55;;;;;;;11.90;4.10;;;;;;;37.81;27.91;100764.29;108149;1251;62695;-69
2023/08/17 05:40:22;;;;;;;10.90;3.30;;;;;;;38.20;26.92;100765.27;108060;1256;59545;-68
2023/08/17 05:42:50;;;;;;;8.90;3.40;;;;;;;38.18;27.13;100765.16;107927;1253;59519;-68
2023/08/17 05:45:17;;;;;;;9.00;3.40;;;;;;;38.12;27.42;100762.79;107900;1253;64209;-69
2023/08/17 05:47:45;;;;;;;13.60;3.50;;;;;;;38.22;26.93;100763.65;108065;1253;61821;-67
2023/08/17 05:50:12;;;;;;;8.70;3.50;;;;;;;38.26;26.57;100761.75;108011;1254;63744;-69
2023/08/17 05:52:40;;;;;;;8.10;3.40;;;;;;;38.26;26.50;100758.36;108009;1253;60281;-69
2023/08/17 05:55:08;;;;;;;13.00;4.50;;;;;;;38.27;26.87;100758.27;108048;1253;60145;-68
2023/08/17 05:57:35;;;;;;;10.60;5.10;;;;;;;38.12;26.63;100755.69;108053;1253;75948;-70
2023/08/17 06:00:04;;;;;;;16.40;6.30;;;;;;;38.14;26.52;100755.04;108062;1253;70976;-69
2023/08/17 06:02:39;;;;;;;9.90;3.80;;;;;;;38.37;26.43;100757.44;108168;1253;63171;-69
2023/08/17 06:05:08;;;;;;;12.60;4.20;;;;;;;38.57;26.05;100756.43;107984;1253;60284;-69
2023/08/17 06:07:36;;;;;;;12.70;5.10;;;;;;;39.00;25.91;100752.09;108109;1253;60305;-70
2023/08/17 06:10:05;;;;;;;10.20;3.20;;;;;;;39.27;25.38;100754.44;108062;1253;65032;-69
2023/08/17 06:12:33;;;;;;;8.70;2.90;;;;;;;39.37;25.05;100757.17;108084;1253;60293;-69
2023/08/17 06:15:04;;;;;;;11.10;2.80;;;;;;;39.15;24.99;100758.79;108090;1258;63845;-69
2023/08/17 06:17:32;;;;;;;12.80;2.50;;;;;;;39.06;25.06;100758.13;108123;1253;60341;-69
2023/08/17 06:20:03;;;;;;;9.80;2.60;;;;;;;38.88;25.39;100757.25;108090;1253;60313;-70
2023/08/17 06:22:30;;;;;;;5.10;2.50;;;;;;;39.53;24.76;100752.60;108096;1253;65394;-69
2023/08/17 06:24:58;;;;;;;5.10;2.50;;;;;;;39.77;24.46;100756.98;108049;1258;61431;-69
2023/08/17 06:27:25;;;;;;;8.50;2.60;;;;;;;39.81;24.15;100758.02;108068;1257;63716;-69
2023/08/17 06:29:53;;;;;;;5.30;2.40;;;;;;;39.84;24.01;100758.23;108074;1253;60393;-70
2023/08/17 06:32:20;;;;;;;7.30;2.90;;;;;;;39.89;23.54;100758.73;108003;1253;60563;-69
2023/08/17 06:34:48;;;;;;;8.00;2.90;;;;;;;39.86;23.70;100758.93;108075;1253;63691;-68
2023/08/17 06:37:15;;;;;;;6.80;2.40;;;;;;;39.95;23.60;100755.54;108006;1253;60087;-69
2023/08/17 06:39:43;;;;;;;6.80;2.30;;;;;;;40.12;23.50;100750.41;107975;1254;63779;-69
2023/08/17 06:42:10;;;;;;;6.70;2.90;;;;;;;40.26;23.15;100752.59;108099;1253;60296;-70
2023/08/17 06:44:38;;;;;;;8.20;3.00;;;;;;;40.35;23.38;100754.41;108192;1253;59305;-69
2023/08/17 06:47:05;;;;;;;4.40;2.50;;;;;;;40.61;23.58;100752.88;108175;1253;72903;-69
2023/08/17 06:49:34;;;;;;;6.20;2.20;;;;;;;40.96;22.80;100757.50;108171;1253;60534;-69
2023/08/17 06:52:01;;;;;;;4.90;2.40;;;;;;;41.13;22.37;100758.70;108266;1253;63739;-69
2023/08/17 06:54:29;;;;;;;5.70;2.20;;;;;;;41.00;22.33;100763.23;108185;1252;60541;-69
2023/08/17 06:56:56;;;;;;;6.40;2.50;;;;;;;41.14;22.46;100764.75;108158;1253;60352;-69
2023/08/17 06:59:23;;;;;;;3.40;2.00;;;;;;;41.17;22.14;100763.60;108090;1253;63635;-69
2023/08/17 07:01:51;;;;;;;3.90;1.90;;;;;;;41.09;22.21;100763.02;108234;1252;60535;-69
2023/08/17 07:04:19;;;;;;;7.00;2.40;;;;;;;41.02;22.03;100758.44;108055;1253;63697;-70
2023/08/17 07:06:47;;;;;;;7.00;2.70;;;;;;;41.18;22.07;100761.02;108129;1253;60470;-69
2023/08/17 07:09:15;;;;;;;8.20;2.30;;;;;;;41.26;22.28;100761.74;108235;1253;60319;-69
2023/08/17 07:11:47;;;;;;;7.40;2.10;;;;;;;41.41;22.05;100758.02;108041;1254;64945;-70
2023/08/17 07:14:15;;;;;;;10.90;2.00;;;;;;;41.68;21.66;100758.55;108029;1252;60528;-67
2023/08/17 07:16:43;;;;;;;9.20;2.00;;;;;;;40.99;21.65;100755.11;108093;1257;63749;-70
2023/08/17 07:19:11;;;;;;;5.80;1.90;;;;;;;40.55;22.39;100749.54;108060;1253;60354;-70
2023/08/17 07:21:38;;;;;;;7.00;1.70;;;;;;;40.92;21.93;100752.09;108137;1253;59076;-70
2023/08/17 07:24:16;;;;;;;4.80;2.10;;;;;;;41.06;21.56;100746.60;108031;1252;63657;-69
2023/08/17 07:26:46;;;;;;;7.90;2.20;;;;;;;41.35;21.55;100748.60;107985;1253;62658;-70
2023/08/17 07:29:14;;;;;;;3.90;1.50;;;;;;;41.42;21.59;100747.41;108008;1254;62442;-70
2023/08/17 07:31:42;;;;;;;2.70;1.40;;;;;;;41.29;21.12;100749.14;108007;1254;59224;-70
2023/08/17 07:34:10;;;;;;;4.60;1.60;;;;;;;41.25;21.14;100747.80;108055;1253;60314;-70
2023/08/17 07:36:38;;;;;;;8.40;2.00;;;;;;;41.32;21.40;100746.06;108177;1254;63744;-69
2023/08/17 07:39:06;;;;;;;5.60;2.00;;;;;;;41.18;21.83;100748.63;108120;1257;60340;-70
2023/08/17 07:41:34;;;;;;;7.10;1.60;;;;;;;41.16;21.68;100747.98;108011;1254;63767;-69
2023/08/17 07:44:02;;;;;;;8.20;1.40;;;;;;;41.17;21.21;100741.88;108088;1254;60391;-70
2023/08/17 07:46:29;;;;;;;3.20;1.80;;;;;;;40.90;21.27;100747.53;107981;1255;60286;-70
2023/08/17 07:48:56;;;;;;;2.80;1.40;;;;;;;40.48;22.10;100745.45;107952;1254;63917;-69
2023/08/17 07:51:24;;;;;;;5.10;1.40;;;;;;;40.54;22.28;100743.10;108099;1255;60377;-70
2023/08/17 07:53:51;;;;;;;3.20;1.40;;;;;;;40.68;22.07;100745.65;107991;1255;63763;-70
2023/08/17 07:56:20;;;;;;;27.30;17.70;;;;;;;40.94;21.72;100743.08;108000;1254;60967;-69
2023/08/17 07:58:47;;;;;;;6.70;3.00;;;;;;;40.97;21.76;100749.83;107916;1254;60418;-69
2023/08/17 08:01:15;;;;;;;4.90;1.70;;;;;;;41.21;21.31;100749.42;107929;1254;65371;-69
2023/08/17 08:03:42;;;;;;;3.30;1.60;;;;;;;41.35;20.67;100746.29;108033;1254;61536;-70
2023/08/17 08:06:09;;;;;;;8.50;1.70;;;;;;;41.43;20.91;100745.88;108026;1254;63899;-69
2023/08/17 08:08:38;;;;;;;5.30;1.70;;;;;;;41.30;21.14;100748.71;108054;1256;60391;-68
2023/08/17 08:11:07;;;;;;;5.30;1.60;;;;;;;41.28;21.71;100752.27;108009;1254;58325;-69
2023/08/17 08:13:35;;;;;;;8.80;1.90;;;;;;;41.37;21.37;100752.45;107904;1254;63708;-69
2023/08/17 08:16:03;;;;;;;3.90;1.70;;;;;;;41.13;20.67;100751.23;107992;1255;61814;-69
2023/08/17 08:18:30;;;;;;;6.00;1.70;;;;;;;40.78;21.02;100749.29;107951;1254;66115;-69
2023/08/17 08:20:57;;;;;;;35.10;3.50;;;;;;;40.30;21.62;100742.30;108102;1254;59076;-69
2023/08/17 08:23:26;;;;;;;6.10;1.60;;;;;;;40.49;21.90;100745.30;107943;1260;60371;-69
2023/08/17 08:25:53;;;;;;;3.40;1.60;;;;;;;40.10;22.04;100744.42;108052;1253;63650;-69
2023/08/17 08:28:21;;;;;;;9.10;1.80;;;;;;;39.31;22.60;100741.80;108100;1258;70562;-70
2023/08/17 08:30:48;;;;;;;6.30;1.80;;;;;;;39.25;23.33;100743.54;108100;1253;63879;-69
2023/08/17 08:33:15;;;;;;;6.50;2.30;;;;;;;39.20;23.43;100742.96;108036;1254;59221;-69
2023/08/17 08:35:43;;;;;;;12.70;2.40;;;;;;;39.06;23.55;100746.77;108044;1253;59152;-69
2023/08/17 08:38:10;;;;;;;4.60;1.70;;;;;;;39.17;23.35;100747.92;107951;1253;64863;-68
2023/08/17 08:40:38;;;;;;;11.60;1.70;;;;;;;39.18;23.07;100745.86;108052;1255;62046;-71
2023/08/17 08:43:06;;;;;;;7.90;1.90;;;;;;;39.32;22.94;100746.89;108260;1253;63719;-69
2023/08/17 08:45:35;;;;;;;5.90;1.60;;;;;;;39.47;22.97;100745.85;107949;1253;60503;-69
2023/08/17 08:48:03;;;;;;;5.20;1.70;;;;;;;39.89;22.56;100745.02;108122;1253;60349;-70
2023/08/17 08:50:31;;;;;;;4.10;1.80;;;;;;;39.97;22.41;100743.96;108204;1253;65002;-69
2023/08/17 08:52:59;;;;;;;4.60;1.70;;;;;;;40.14;22.44;100744.16;108140;1253;61940;-70
2023/08/17 08:55:29;;;;;;;6.10;1.80;;;;;;;39.94;22.28;100742.93;108104;1258;62946;-69
2023/08/17 08:57:56;;;;;;;9.00;2.10;;;;;;;39.79;22.40;100733.83;108222;1253;60322;-69
2023/08/17 09:00:24;;;;;;;7.20;1.80;;;;;;;40.17;22.40;100739.83;108158;1253;62215;-69
2023/08/17 09:02:52;;;;;;;4.70;1.60;;;;;;;40.36;21.96;100740.56;108164;1252;64964;-69
2023/08/17 09:05:19;;;;;;;5.30;1.80;;;;;;;40.03;22.22;100737.25;108056;1253;61671;-70
2023/08/17 09:07:48;;;;;;;7.10;1.90;;;;;;;39.88;22.54;100734.89;108043;1253;63153;-68
2023/08/17 09:10:16;;;;;;;5.10;1.60;;;;;;;40.09;22.09;100734.55;108171;1253;60311;-69
2023/08/17 09:12:46;;;;;;;5.30;1.60;;;;;;;40.37;21.60;100743.52;108211;1252;60345;-71
2023/08/17 09:15:15;;;;;;;4.70;1.50;;;;;;;40.39;21.54;100742.30;108245;1253;65439;-68
2023/08/17 09:17:43;;;;;;;5.80;1.60;;;;;;;40.47;21.50;100739.53;108123;1255;70697;-70
2023/08/17 09:20:11;;;;;;;2.90;1.50;;;;;;;40.91;21.19;100735.07;108206;1253;62422;-68
2023/08/17 09:22:44;;;;;;;3.80;1.50;;;;;;;41.09;20.93;100733.14;108516;1253;60524;-69
2023/08/17 09:25:12;;;;;;;4.80;1.50;;;;;;;40.94;20.83;100732.48;108639;1252;60239;-69
2023/08/17 09:27:41;;;;;;;3.00;1.60;;;;;;;41.08;21.18;100724.33;108416;1253;63689;-69
2023/08/17 09:30:10;;;;;;;11.80;1.70;;;;;;;41.14;21.02;100727.65;108283;1253;62485;-70
2023/08/17 09:32:38;;;;;;;6.80;1.90;;;;;;;41.01;21.12;100733.80;108142;1253;64420;-70
2023/08/17 09:35:06;;;;;;;7.00;1.60;;;;;;;41.11;20.96;100727.00;108228;1253;60406;-69
2023/08/17 09:37:34;;;;;;;5.80;1.30;;;;;;;41.17;20.61;100725.04;108076;1253;60333;-70
2023/08/17 09:40:01;;;;;;;4.20;1.60;;;;;;;40.86;20.75;100734.63;108190;1253;64974;-69
2023/08/17 09:42:29;;;;;;;4.20;1.60;;;;;;;40.52;21.38;100730.75;108149;1253;60198;-70
2023/08/17 09:44:57;;;;;;;3.80;1.90;;;;;;;40.55;21.70;100724.75;108110;1253;63952;-69
2023/08/17 09:47:26;;;;;;;10.80;1.80;;;;;;;40.98;21.24;100722.30;108037;1252;60444;-69
2023/08/17 09:49:54;;;;;;;4.40;1.50;;;;;;;41.28;20.73;100722.04;108271;1253;60344;-69
2023/08/17 09:52:26;;;;;;;10.60;1.90;;;;;;;41.56;20.56;100720.15;108116;1253;64885;-69
2023/08/17 09:54:54;;;;;;;7.50;1.80;;;;;;;41.80;20.42;100720.11;108186;1253;60707;-69
2023/08/17 09:57:22;;;;;;;6.20;2.00;;;;;;;41.86;20.42;100719.88;108101;1253;63954;-69
2023/08/17 09:59:51;;;;;;;4.40;2.00;;;;;;;41.87;20.43;100718.29;107981;1256;60396;-69
2023/08/17 10:02:23;;;;;;;7.00;2.00;;;;;;;41.69;20.50;100718.15;108176;1253;60344;-69
2023/08/17 10:04:52;;;;;;;3.10;1.60;;;;;;;41.55;20.39;100713.63;108186;1253;63667;-69
2023/08/17 10:07:21;;;;;;;3.70;2.20;;;;;;;41.38;20.63;100713.67;108182;1253;61458;-69
2023/08/17 10:10:03;;;;;;;5.40;1.90;;;;;;;41.13;20.77;100711.67;108054;1253;62446;-69
2023/08/17 10:13:06;;;;;;;3.20;1.70;;;;;;;41.12;20.86;100710.73;108128;1253;60353;-70
2023/08/17 10:15:37;;;;;;;10.40;1.90;;;;;;;41.20;20.94;100707.41;108096;1252;60438;-69
2023/08/17 10:18:09;;;;;;;4.30;2.00;;;;;;;41.21;20.96;100707.66;108158;1257;64962;-69
2023/08/17 10:20:45;;;;;;;14.00;2.00;;;;;;;41.26;20.89;100701.05;108119;1257;61022;-69
2023/08/17 10:23:17;;;;;;;4.90;1.70;;;;;;;41.23;20.82;100703.20;108013;1253;64154;-69
2023/08/17 10:25:45;;;;;;;9.60;1.80;;;;;;;40.95;21.13;100700.58;108106;1253;60425;-69
2023/08/17 10:28:20;;;;;;;8.70;1.90;;;;;;;40.96;21.04;100704.59;107776;1261;59640;-70
2023/08/17 10:30:52;;;;;;;4.60;1.90;;;;;;;40.80;21.21;100703.29;107994;1253;65540;-69
2023/08/17 10:33:19;;;;;;;8.80;3.80;;;;;;;40.57;21.65;100704.66;108034;1253;60343;-68
2023/08/17 10:35:47;;;;;;;9.10;3.50;;;;;;;40.84;21.65;100700.61;107885;1253;64368;-69
2023/08/17 10:38:15;;;;;;;9.70;2.50;;;;;;;41.22;21.39;100698.30;107952;1256;60324;-70
2023/08/17 10:40:42;;;;;;;3.90;2.10;;;;;;;41.52;20.89;100691.61;107996;1260;60591;-69
2023/08/17 10:43:12;;;;;;;10.40;2.50;;;;;;;41.43;20.96;100690.95;108129;1254;63674;-69
2023/08/17 10:45:39;;;;;;;5.30;2.20;;;;;;;41.50;21.12;100692.01;108166;1254;60549;-70
2023/08/17 10:48:07;;;;;;;8.00;2.20;;;;;;;41.45;20.97;100690.64;108275;1254;62508;-69
2023/08/17 10:50:36;;;;;;;6.00;2.70;;;;;;;41.21;20.93;100693.65;108173;1253;60350;-68
2023/08/17 10:53:11;;;;;;;5.80;2.30;;;;;;;40.96;20.89;100696.45;108201;1256;59370;-67
2023/08/17 10:55:40;;;;;;;5.10;1.60;;;;;;;40.61;21.41;100693.09;108359;1254;65061;-69
2023/08/17 10:58:08;;;;;;;3.10;1.40;;;;;;;40.69;21.49;100694.98;108123;1253;60401;-69
2023/08/17 11:00:44;;;;;;;11.10;1.90;;;;;;;40.90;21.43;100686.88;108174;1256;63704;-69
2023/08/17 11:03:19;;;;;;;6.40;1.80;;;;;;;41.18;20.73;100687.02;108250;1253;60514;-67
2023/08/17 11:05:55;;;;;;;4.30;1.70;;;;;;;41.12;20.84;100689.65;108197;1254;60249;-68
2023/08/17 11:08:23;;;;;;;6.80;2.00;;;;;;;41.02;21.28;100687.69;108212;1254;64906;-69
2023/08/17 11:11:06;;;;;;;4.80;1.90;;;;;;;41.31;21.33;100679.56;108148;1254;61504;-69
2023/08/17 11:13:35;;;;;;;5.00;1.90;;;;;;;41.40;21.27;100680.67;108161;1253;63859;-69
2023/08/17 11:16:03;;;;;;;4.90;1.60;;;;;;;41.21;21.13;100687.42;108190;1253;60417;-67
2023/08/17 11:18:35;;;;;;;3.10;1.70;;;;;;;41.01;21.13;100683.08;108249;1256;59072;-69
2023/08/17 11:21:05;;;;;;;5.80;1.50;;;;;;;40.64;21.21;100683.98;108173;1252;63699;-69
2023/08/17 11:23:34;;;;;;;4.90;1.60;;;;;;;40.56;21.30;100676.91;108316;1252;61370;-69